sensor_id;sensor_type;location;lat;lon;timestamp;temperature;humidity
38684;DHT22;24910;53.248;-6.134;2023-06-26T00:00:20;17.10;72.70
38684;DHT22;24910;53.248;-6.134;2023-06-26T00:02:50;17.10;72.90
38684;DHT22;24910;53.248;-6.134;2023-06-26T00:05:19;17.10;72.90
38684;DHT22;24910;53.248;-6.134;2023-06-26T00:07:48;17.10;72.90
38684;DHT22;24910;53.248;-6.134;2023-06-26T00:10:17;17.10;72.90
38684;DHT22;24910;53.248;-6.134;2023-06-26T00:12:48;17.10;73.10
38684;DHT22;24910;53.248;-6.134;2023-06-26T00:15:17;17.00;73.20
38684;DHT22;24910;53.248;-6.134;2023-06-26T00:17:46;17.00;73.20
38684;DHT22;24910;53.248;-6.134;2023-06-26T00:20:15;17.00;73.30
38684;DHT22;24910;53.248;-6.134;2023-06-26T00:22:46;16.90;73.40
38684;DHT22;24910;53.248;-6.134;2023-06-26T00:25:18;16.90;73.60
38684;DHT22;24910;53.248;-6.134;2023-06-26T00:27:48;16.80;73.70
38684;DHT22;24910;53.248;-6.134;2023-06-26T00:30:18;16.80;73.70
38684;DHT22;24910;53.248;-6.134;2023-06-26T00:32:47;16.80;73.90
38684;DHT22;24910;53.248;-6.134;2023-06-26T00:35:16;16.80;74.00
38684;DHT22;24910;53.248;-6.134;2023-06-26T00:37:45;16.80;74.10
38684;DHT22;24910;53.248;-6.134;2023-06-26T00:40:15;16.80;74.10
38684;DHT22;24910;53.248;-6.134;2023-06-26T00:42:44;16.80;74.00
38684;DHT22;24910;53.248;-6.134;2023-06-26T00:45:16;16.80;74.00
38684;DHT22;24910;53.248;-6.134;2023-06-26T00:47:56;16.70;74.00
38684;DHT22;24910;53.248;-6.134;2023-06-26T00:50:25;16.70;74.10
38684;DHT22;24910;53.248;-6.134;2023-06-26T00:52:55;16.70;74.10
38684;DHT22;24910;53.248;-6.134;2023-06-26T00:55:28;16.70;74.20
38684;DHT22;24910;53.248;-6.134;2023-06-26T00:57:57;16.70;74.30
38684;DHT22;24910;53.248;-6.134;2023-06-26T01:00:30;16.70;74.40
38684;DHT22;24910;53.248;-6.134;2023-06-26T01:02:59;16.70;74.50
38684;DHT22;24910;53.248;-6.134;2023-06-26T01:05:29;16.70;74.50
38684;DHT22;24910;53.248;-6.134;2023-06-26T01:07:59;16.70;74.70
38684;DHT22;24910;53.248;-6.134;2023-06-26T01:10:28;16.70;74.80
38684;DHT22;24910;53.248;-6.134;2023-06-26T01:12:58;16.70;74.90
38684;DHT22;24910;53.248;-6.134;2023-06-26T01:15:30;16.60;74.90
38684;DHT22;24910;53.248;-6.134;2023-06-26T01:17:59;16.60;75.10
38684;DHT22;24910;53.248;-6.134;2023-06-26T01:20:32;16.60;74.90
38684;DHT22;24910;53.248;-6.134;2023-06-26T01:23:22;16.60;75.00
38684;DHT22;24910;53.248;-6.134;2023-06-26T01:28:56;16.60;75.20
38684;DHT22;24910;53.248;-6.134;2023-06-26T01:31:29;16.60;75.20
38684;DHT22;24910;53.248;-6.134;2023-06-26T01:33:59;16.60;75.20
38684;DHT22;24910;53.248;-6.134;2023-06-26T01:36:29;16.60;75.20
38684;DHT22;24910;53.248;-6.134;2023-06-26T01:38:58;16.60;75.20
38684;DHT22;24910;53.248;-6.134;2023-06-26T01:41:27;16.60;75.20
38684;DHT22;24910;53.248;-6.134;2023-06-26T01:44:05;16.60;75.20
38684;DHT22;24910;53.248;-6.134;2023-06-26T01:46:49;16.60;75.20
38684;DHT22;24910;53.248;-6.134;2023-06-26T01:49:26;16.60;75.20
38684;DHT22;24910;53.248;-6.134;2023-06-26T01:52:03;16.60;75.30
38684;DHT22;24910;53.248;-6.134;2023-06-26T01:54:37;16.60;75.40
38684;DHT22;24910;53.248;-6.134;2023-06-26T01:57:08;16.60;75.50
38684;DHT22;24910;53.248;-6.134;2023-06-26T01:59:40;16.60;75.50
38684;DHT22;24910;53.248;-6.134;2023-06-26T02:02:11;16.60;75.50
38684;DHT22;24910;53.248;-6.134;2023-06-26T02:04:40;16.60;75.50
38684;DHT22;24910;53.248;-6.134;2023-06-26T02:07:10;16.60;75.50
38684;DHT22;24910;53.248;-6.134;2023-06-26T02:09:40;16.50;75.60
38684;DHT22;24910;53.248;-6.134;2023-06-26T02:12:10;16.50;75.70
38684;DHT22;24910;53.248;-6.134;2023-06-26T02:14:41;16.50;75.80
38684;DHT22;24910;53.248;-6.134;2023-06-26T02:17:11;16.40;76.00
38684;DHT22;24910;53.248;-6.134;2023-06-26T02:19:40;16.40;76.00
38684;DHT22;24910;53.248;-6.134;2023-06-26T02:22:15;16.40;76.10
38684;DHT22;24910;53.248;-6.134;2023-06-26T02:24:45;16.40;76.10
38684;DHT22;24910;53.248;-6.134;2023-06-26T02:27:14;16.50;76.20
38684;DHT22;24910;53.248;-6.134;2023-06-26T02:29:46;16.50;76.10
38684;DHT22;24910;53.248;-6.134;2023-06-26T02:32:15;16.50;76.20
38684;DHT22;24910;53.248;-6.134;2023-06-26T02:34:44;16.50;76.20
38684;DHT22;24910;53.248;-6.134;2023-06-26T02:37:14;16.50;76.20
38684;DHT22;24910;53.248;-6.134;2023-06-26T02:39:43;16.50;76.20
38684;DHT22;24910;53.248;-6.134;2023-06-26T02:42:13;16.50;76.20
38684;DHT22;24910;53.248;-6.134;2023-06-26T02:44:42;16.40;77.00
38684;DHT22;24910;53.248;-6.134;2023-06-26T02:47:13;16.40;76.20
38684;DHT22;24910;53.248;-6.134;2023-06-26T02:49:44;16.40;76.30
38684;DHT22;24910;53.248;-6.134;2023-06-26T02:52:13;16.40;76.40
38684;DHT22;24910;53.248;-6.134;2023-06-26T02:54:42;16.40;76.40
38684;DHT22;24910;53.248;-6.134;2023-06-26T02:57:13;16.40;76.50
38684;DHT22;24910;53.248;-6.134;2023-06-26T02:59:43;16.40;76.50
38684;DHT22;24910;53.248;-6.134;2023-06-26T03:02:14;16.40;76.60
38684;DHT22;24910;53.248;-6.134;2023-06-26T03:04:46;16.40;76.40
38684;DHT22;24910;53.248;-6.134;2023-06-26T03:07:15;16.40;76.40
38684;DHT22;24910;53.248;-6.134;2023-06-26T03:09:45;16.40;76.40
38684;DHT22;24910;53.248;-6.134;2023-06-26T03:12:14;16.40;76.40
38684;DHT22;24910;53.248;-6.134;2023-06-26T03:14:43;16.30;76.50
38684;DHT22;24910;53.248;-6.134;2023-06-26T03:17:15;16.30;76.60
38684;DHT22;24910;53.248;-6.134;2023-06-26T03:19:47;16.20;76.60
38684;DHT22;24910;53.248;-6.134;2023-06-26T03:22:20;16.20;76.60
38684;DHT22;24910;53.248;-6.134;2023-06-26T03:24:49;16.20;76.70
38684;DHT22;24910;53.248;-6.134;2023-06-26T03:27:18;16.10;76.80
38684;DHT22;24910;53.248;-6.134;2023-06-26T03:29:49;16.10;76.90
38684;DHT22;24910;53.248;-6.134;2023-06-26T03:32:20;16.10;76.90
38684;DHT22;24910;53.248;-6.134;2023-06-26T03:34:49;16.10;77.00
38684;DHT22;24910;53.248;-6.134;2023-06-26T03:37:20;16.20;77.00
38684;DHT22;24910;53.248;-6.134;2023-06-26T03:39:52;16.20;77.00
38684;DHT22;24910;53.248;-6.134;2023-06-26T03:42:22;16.20;77.00
38684;DHT22;24910;53.248;-6.134;2023-06-26T03:44:51;16.20;76.90
38684;DHT22;24910;53.248;-6.134;2023-06-26T03:47:22;16.20;76.90
38684;DHT22;24910;53.248;-6.134;2023-06-26T03:49:51;16.20;76.80
38684;DHT22;24910;53.248;-6.134;2023-06-26T03:52:20;16.20;76.90
38684;DHT22;24910;53.248;-6.134;2023-06-26T03:54:49;16.20;76.90
38684;DHT22;24910;53.248;-6.134;2023-06-26T03:57:19;16.20;76.80
38684;DHT22;24910;53.248;-6.134;2023-06-26T03:59:48;16.20;76.80
38684;DHT22;24910;53.248;-6.134;2023-06-26T04:02:17;16.20;76.80
38684;DHT22;24910;53.248;-6.134;2023-06-26T04:04:48;16.20;76.90
38684;DHT22;24910;53.248;-6.134;2023-06-26T04:07:18;16.20;77.00
38684;DHT22;24910;53.248;-6.134;2023-06-26T04:09:47;16.10;77.10
38684;DHT22;24910;53.248;-6.134;2023-06-26T04:12:16;16.10;77.20
38684;DHT22;24910;53.248;-6.134;2023-06-26T04:14:47;16.00;77.20
38684;DHT22;24910;53.248;-6.134;2023-06-26T04:17:16;16.00;77.30
38684;DHT22;24910;53.248;-6.134;2023-06-26T04:19:45;16.00;77.40
38684;DHT22;24910;53.248;-6.134;2023-06-26T04:22:16;16.00;77.60
38684;DHT22;24910;53.248;-6.134;2023-06-26T04:24:45;16.00;77.80
38684;DHT22;24910;53.248;-6.134;2023-06-26T04:27:14;15.90;77.80
38684;DHT22;24910;53.248;-6.134;2023-06-26T04:29:43;15.90;77.90
38684;DHT22;24910;53.248;-6.134;2023-06-26T04:32:12;15.90;77.90
38684;DHT22;24910;53.248;-6.134;2023-06-26T04:34:41;16.00;78.20
38684;DHT22;24910;53.248;-6.134;2023-06-26T04:37:11;15.90;78.10
38684;DHT22;24910;53.248;-6.134;2023-06-26T04:39:45;15.90;78.10
38684;DHT22;24910;53.248;-6.134;2023-06-26T04:42:14;15.90;78.20
38684;DHT22;24910;53.248;-6.134;2023-06-26T04:44:44;15.90;78.20
38684;DHT22;24910;53.248;-6.134;2023-06-26T04:47:13;16.00;78.40
38684;DHT22;24910;53.248;-6.134;2023-06-26T04:49:43;16.00;78.50
38684;DHT22;24910;53.248;-6.134;2023-06-26T04:52:14;16.00;78.50
38684;DHT22;24910;53.248;-6.134;2023-06-26T04:54:45;16.00;78.50
38684;DHT22;24910;53.248;-6.134;2023-06-26T04:57:17;16.00;78.60
38684;DHT22;24910;53.248;-6.134;2023-06-26T04:59:46;16.00;78.60
38684;DHT22;24910;53.248;-6.134;2023-06-26T05:02:15;16.10;78.80
38684;DHT22;24910;53.248;-6.134;2023-06-26T05:04:44;16.10;78.90
38684;DHT22;24910;53.248;-6.134;2023-06-26T05:07:14;16.20;78.90
38684;DHT22;24910;53.248;-6.134;2023-06-26T05:09:45;16.20;78.80
38684;DHT22;24910;53.248;-6.134;2023-06-26T05:12:14;16.20;78.90
38684;DHT22;24910;53.248;-6.134;2023-06-26T05:14:43;16.30;79.20
38684;DHT22;24910;53.248;-6.134;2023-06-26T05:17:14;16.40;79.20
38684;DHT22;24910;53.248;-6.134;2023-06-26T05:19:43;16.60;79.20
38684;DHT22;24910;53.248;-6.134;2023-06-26T05:22:12;16.70;79.10
38684;DHT22;24910;53.248;-6.134;2023-06-26T05:24:42;16.80;78.80
38684;DHT22;24910;53.248;-6.134;2023-06-26T05:27:15;17.00;78.60
38684;DHT22;24910;53.248;-6.134;2023-06-26T05:29:50;17.10;78.30
38684;DHT22;24910;53.248;-6.134;2023-06-26T05:32:19;17.20;78.00
38684;DHT22;24910;53.248;-6.134;2023-06-26T05:34:49;17.30;77.80
38684;DHT22;24910;53.248;-6.134;2023-06-26T05:37:21;17.50;77.50
38684;DHT22;24910;53.248;-6.134;2023-06-26T05:39:51;17.60;77.20
38684;DHT22;24910;53.248;-6.134;2023-06-26T05:42:22;17.80;76.90
38684;DHT22;24910;53.248;-6.134;2023-06-26T05:44:51;17.90;76.60
38684;DHT22;24910;53.248;-6.134;2023-06-26T05:47:20;18.00;76.20
38684;DHT22;24910;53.248;-6.134;2023-06-26T05:49:49;18.10;75.90
38684;DHT22;24910;53.248;-6.134;2023-06-26T05:52:19;18.20;75.80
38684;DHT22;24910;53.248;-6.134;2023-06-26T05:54:49;18.30;75.40
38684;DHT22;24910;53.248;-6.134;2023-06-26T05:57:20;18.40;75.10
38684;DHT22;24910;53.248;-6.134;2023-06-26T05:59:50;18.50;74.70
38684;DHT22;24910;53.248;-6.134;2023-06-26T06:02:20;18.70;74.50
38684;DHT22;24910;53.248;-6.134;2023-06-26T06:04:49;18.80;74.40
38684;DHT22;24910;53.248;-6.134;2023-06-26T06:07:18;18.80;73.90
38684;DHT22;24910;53.248;-6.134;2023-06-26T06:09:47;18.90;74.00
38684;DHT22;24910;53.248;-6.134;2023-06-26T06:12:16;18.90;74.00
38684;DHT22;24910;53.248;-6.134;2023-06-26T06:14:47;19.00;73.80
38684;DHT22;24910;53.248;-6.134;2023-06-26T06:17:16;19.10;73.60
38684;DHT22;24910;53.248;-6.134;2023-06-26T06:19:45;19.20;73.50
38684;DHT22;24910;53.248;-6.134;2023-06-26T06:22:15;19.20;73.30
38684;DHT22;24910;53.248;-6.134;2023-06-26T06:24:45;19.20;73.20
38684;DHT22;24910;53.248;-6.134;2023-06-26T06:27:14;19.30;73.10
38684;DHT22;24910;53.248;-6.134;2023-06-26T06:29:43;19.30;72.90
38684;DHT22;24910;53.248;-6.134;2023-06-26T06:32:14;19.40;72.70
38684;DHT22;24910;53.248;-6.134;2023-06-26T06:34:43;19.60;72.60
38684;DHT22;24910;53.248;-6.134;2023-06-26T06:37:12;19.70;72.20
38684;DHT22;24910;53.248;-6.134;2023-06-26T06:39:41;19.70;72.00
38684;DHT22;24910;53.248;-6.134;2023-06-26T06:42:10;19.90;71.90
38684;DHT22;24910;53.248;-6.134;2023-06-26T06:44:40;20.00;71.70
38684;DHT22;24910;53.248;-6.134;2023-06-26T06:47:09;20.10;71.60
38684;DHT22;24910;53.248;-6.134;2023-06-26T06:49:39;20.20;71.40
38684;DHT22;24910;53.248;-6.134;2023-06-26T06:52:08;20.40;70.90
38684;DHT22;24910;53.248;-6.134;2023-06-26T06:54:51;20.50;70.60
38684;DHT22;24910;53.248;-6.134;2023-06-26T06:57:21;20.60;70.40
38684;DHT22;24910;53.248;-6.134;2023-06-26T06:59:50;20.80;70.40
38684;DHT22;24910;53.248;-6.134;2023-06-26T07:02:20;20.90;70.00
38684;DHT22;24910;53.248;-6.134;2023-06-26T07:04:50;21.10;69.80
38684;DHT22;24910;53.248;-6.134;2023-06-26T07:07:19;21.20;69.50
38684;DHT22;24910;53.248;-6.134;2023-06-26T07:09:48;21.30;69.30
38684;DHT22;24910;53.248;-6.134;2023-06-26T07:12:17;21.40;69.20
38684;DHT22;24910;53.248;-6.134;2023-06-26T07:14:46;21.50;69.10
38684;DHT22;24910;53.248;-6.134;2023-06-26T07:17:15;21.60;68.70
38684;DHT22;24910;53.248;-6.134;2023-06-26T07:19:45;21.70;68.30
38684;DHT22;24910;53.248;-6.134;2023-06-26T07:22:15;21.80;67.90
38684;DHT22;24910;53.248;-6.134;2023-06-26T07:24:46;21.90;67.50
38684;DHT22;24910;53.248;-6.134;2023-06-26T07:27:16;22.00;67.30
38684;DHT22;24910;53.248;-6.134;2023-06-26T07:29:46;22.00;67.00
38684;DHT22;24910;53.248;-6.134;2023-06-26T07:32:15;22.10;66.60
38684;DHT22;24910;53.248;-6.134;2023-06-26T07:34:44;22.20;66.50
38684;DHT22;24910;53.248;-6.134;2023-06-26T07:37:15;22.30;66.20
38684;DHT22;24910;53.248;-6.134;2023-06-26T07:39:44;22.50;66.10
38684;DHT22;24910;53.248;-6.134;2023-06-26T07:42:13;22.50;65.80
38684;DHT22;24910;53.248;-6.134;2023-06-26T07:44:43;22.60;65.70
38684;DHT22;24910;53.248;-6.134;2023-06-26T07:47:12;22.70;65.60
38684;DHT22;24910;53.248;-6.134;2023-06-26T07:49:41;22.80;65.60
38684;DHT22;24910;53.248;-6.134;2023-06-26T07:52:10;22.90;65.20
38684;DHT22;24910;53.248;-6.134;2023-06-26T07:54:41;23.00;64.90
38684;DHT22;24910;53.248;-6.134;2023-06-26T07:57:11;23.00;64.60
38684;DHT22;24910;53.248;-6.134;2023-06-26T07:59:40;23.00;64.40
38684;DHT22;24910;53.248;-6.134;2023-06-26T08:02:09;23.10;64.30
38684;DHT22;24910;53.248;-6.134;2023-06-26T08:04:41;23.20;64.20
38684;DHT22;24910;53.248;-6.134;2023-06-26T08:07:11;23.20;64.10
38684;DHT22;24910;53.248;-6.134;2023-06-26T08:09:43;23.20;63.80
38684;DHT22;24910;53.248;-6.134;2023-06-26T08:12:12;23.30;63.70
38684;DHT22;24910;53.248;-6.134;2023-06-26T08:14:41;23.30;63.70
38684;DHT22;24910;53.248;-6.134;2023-06-26T08:17:10;23.20;63.70
38684;DHT22;24910;53.248;-6.134;2023-06-26T08:19:39;23.20;63.50
38684;DHT22;24910;53.248;-6.134;2023-06-26T08:22:08;23.20;63.50
38684;DHT22;24910;53.248;-6.134;2023-06-26T08:24:37;23.20;63.50
38684;DHT22;24910;53.248;-6.134;2023-06-26T08:27:08;23.20;63.10
38684;DHT22;24910;53.248;-6.134;2023-06-26T08:29:37;23.20;63.00
38684;DHT22;24910;53.248;-6.134;2023-06-26T08:32:06;23.20;63.00
38684;DHT22;24910;53.248;-6.134;2023-06-26T08:34:35;23.30;63.10
38684;DHT22;24910;53.248;-6.134;2023-06-26T08:37:05;23.30;63.10
38684;DHT22;24910;53.248;-6.134;2023-06-26T08:39:37;23.40;63.00
38684;DHT22;24910;53.248;-6.134;2023-06-26T08:42:07;23.50;62.70
38684;DHT22;24910;53.248;-6.134;2023-06-26T08:44:36;23.50;62.20
38684;DHT22;24910;53.248;-6.134;2023-06-26T08:47:26;23.60;62.40
38684;DHT22;24910;53.248;-6.134;2023-06-26T08:50:03;23.60;62.10
38684;DHT22;24910;53.248;-6.134;2023-06-26T08:52:35;23.60;61.60
38684;DHT22;24910;53.248;-6.134;2023-06-26T08:55:09;23.60;61.50
38684;DHT22;24910;53.248;-6.134;2023-06-26T08:57:40;23.60;61.40
38684;DHT22;24910;53.248;-6.134;2023-06-26T09:00:12;23.60;61.20
38684;DHT22;24910;53.248;-6.134;2023-06-26T09:02:42;23.70;61.10
38684;DHT22;24910;53.248;-6.134;2023-06-26T09:05:13;23.80;61.00
38684;DHT22;24910;53.248;-6.134;2023-06-26T09:07:42;23.80;61.30
38684;DHT22;24910;53.248;-6.134;2023-06-26T09:10:11;23.80;61.00
38684;DHT22;24910;53.248;-6.134;2023-06-26T09:12:47;23.90;60.60
38684;DHT22;24910;53.248;-6.134;2023-06-26T09:15:19;23.80;60.20
38684;DHT22;24910;53.248;-6.134;2023-06-26T09:17:49;23.80;60.30
38684;DHT22;24910;53.248;-6.134;2023-06-26T09:20:18;23.70;60.40
38684;DHT22;24910;53.248;-6.134;2023-06-26T09:22:47;23.80;60.60
38684;DHT22;24910;53.248;-6.134;2023-06-26T09:25:17;23.90;60.70
38684;DHT22;24910;53.248;-6.134;2023-06-26T09:27:52;23.90;60.50
38684;DHT22;24910;53.248;-6.134;2023-06-26T09:30:21;23.80;60.50
38684;DHT22;24910;53.248;-6.134;2023-06-26T09:32:50;23.80;60.50
38684;DHT22;24910;53.248;-6.134;2023-06-26T09:35:22;23.90;60.60
38684;DHT22;24910;53.248;-6.134;2023-06-26T09:37:52;24.00;60.40
38684;DHT22;24910;53.248;-6.134;2023-06-26T09:40:21;24.10;60.20
38684;DHT22;24910;53.248;-6.134;2023-06-26T09:42:52;24.20;59.80
38684;DHT22;24910;53.248;-6.134;2023-06-26T09:45:23;24.30;59.60
38684;DHT22;24910;53.248;-6.134;2023-06-26T09:47:52;24.40;59.50
38684;DHT22;24910;53.248;-6.134;2023-06-26T09:50:22;24.40;59.50
38684;DHT22;24910;53.248;-6.134;2023-06-26T09:52:54;24.50;59.40
38684;DHT22;24910;53.248;-6.134;2023-06-26T09:55:25;24.60;59.10
38684;DHT22;24910;53.248;-6.134;2023-06-26T09:57:57;24.70;58.80
38684;DHT22;24910;53.248;-6.134;2023-06-26T10:00:31;24.80;58.50
38684;DHT22;24910;53.248;-6.134;2023-06-26T10:03:01;24.80;58.30
38684;DHT22;24910;53.248;-6.134;2023-06-26T10:05:30;24.90;58.20
38684;DHT22;24910;53.248;-6.134;2023-06-26T10:08:00;24.90;58.10
38684;DHT22;24910;53.248;-6.134;2023-06-26T10:10:31;24.90;57.90
38684;DHT22;24910;53.248;-6.134;2023-06-26T10:13:07;25.00;57.50
38684;DHT22;24910;53.248;-6.134;2023-06-26T10:15:38;25.00;57.20
38684;DHT22;24910;53.248;-6.134;2023-06-26T10:18:10;25.00;57.10
38684;DHT22;24910;53.248;-6.134;2023-06-26T10:20:40;25.10;56.80
38684;DHT22;24910;53.248;-6.134;2023-06-26T10:23:11;25.00;56.40
38684;DHT22;24910;53.248;-6.134;2023-06-26T10:25:44;24.80;56.50
38684;DHT22;24910;53.248;-6.134;2023-06-26T10:28:16;24.80;57.00
38684;DHT22;24910;53.248;-6.134;2023-06-26T10:30:45;24.90;57.00
38684;DHT22;24910;53.248;-6.134;2023-06-26T10:33:16;24.90;56.90
38684;DHT22;24910;53.248;-6.134;2023-06-26T10:35:46;25.00;57.00
38684;DHT22;24910;53.248;-6.134;2023-06-26T10:38:15;25.10;56.50
38684;DHT22;24910;53.248;-6.134;2023-06-26T10:40:45;25.10;56.30
38684;DHT22;24910;53.248;-6.134;2023-06-26T10:43:17;25.20;56.00
38684;DHT22;24910;53.248;-6.134;2023-06-26T10:45:48;25.10;55.60
38684;DHT22;24910;53.248;-6.134;2023-06-26T10:48:21;25.00;55.50
38684;DHT22;24910;53.248;-6.134;2023-06-26T10:50:50;24.70;55.40
38684;DHT22;24910;53.248;-6.134;2023-06-26T10:53:23;24.40;55.40
38684;DHT22;24910;53.248;-6.134;2023-06-26T10:55:57;24.20;55.70
38684;DHT22;24910;53.248;-6.134;2023-06-26T10:58:40;24.10;56.10
38684;DHT22;24910;53.248;-6.134;2023-06-26T11:01:23;24.00;56.40
38684;DHT22;24910;53.248;-6.134;2023-06-26T11:04:05;23.90;56.30
38684;DHT22;24910;53.248;-6.134;2023-06-26T11:06:34;23.90;56.30
38684;DHT22;24910;53.248;-6.134;2023-06-26T11:09:08;23.70;56.60
38684;DHT22;24910;53.248;-6.134;2023-06-26T11:11:59;23.40;57.10
38684;DHT22;24910;53.248;-6.134;2023-06-26T11:14:33;23.30;57.90
38684;DHT22;24910;53.248;-6.134;2023-06-26T11:17:04;23.10;58.40
38684;DHT22;24910;53.248;-6.134;2023-06-26T11:19:33;23.00;58.70
38684;DHT22;24910;53.248;-6.134;2023-06-26T11:22:03;23.00;58.90
38684;DHT22;24910;53.248;-6.134;2023-06-26T11:24:33;23.00;59.30
38684;DHT22;24910;53.248;-6.134;2023-06-26T11:27:04;22.90;59.30
38684;DHT22;24910;53.248;-6.134;2023-06-26T11:29:34;22.90;59.80
38684;DHT22;24910;53.248;-6.134;2023-06-26T11:32:05;22.80;60.40
38684;DHT22;24910;53.248;-6.134;2023-06-26T11:34:34;22.70;61.20
38684;DHT22;24910;53.248;-6.134;2023-06-26T11:37:06;22.60;62.00
38684;DHT22;24910;53.248;-6.134;2023-06-26T11:39:35;22.60;62.80
38684;DHT22;24910;53.248;-6.134;2023-06-26T11:42:07;22.60;63.40
38684;DHT22;24910;53.248;-6.134;2023-06-26T11:44:42;22.60;63.80
38684;DHT22;24910;53.248;-6.134;2023-06-26T11:47:15;22.60;63.50
38684;DHT22;24910;53.248;-6.134;2023-06-26T11:49:45;22.60;63.40
38684;DHT22;24910;53.248;-6.134;2023-06-26T11:52:15;22.60;63.40
38684;DHT22;24910;53.248;-6.134;2023-06-26T11:54:45;22.70;63.50
38684;DHT22;24910;53.248;-6.134;2023-06-26T11:57:15;22.70;63.60
38684;DHT22;24910;53.248;-6.134;2023-06-26T11:59:50;22.70;64.10
38684;DHT22;24910;53.248;-6.134;2023-06-26T12:02:21;22.70;62.50
38684;DHT22;24910;53.248;-6.134;2023-06-26T12:04:50;22.80;62.30
38684;DHT22;24910;53.248;-6.134;2023-06-26T12:07:20;22.70;62.40
38684;DHT22;24910;53.248;-6.134;2023-06-26T12:09:51;22.60;62.30
38684;DHT22;24910;53.248;-6.134;2023-06-26T12:12:21;22.60;62.50
38684;DHT22;24910;53.248;-6.134;2023-06-26T12:14:52;22.50;62.50
38684;DHT22;24910;53.248;-6.134;2023-06-26T12:17:23;22.50;62.70
38684;DHT22;24910;53.248;-6.134;2023-06-26T12:19:52;22.50;62.90
38684;DHT22;24910;53.248;-6.134;2023-06-26T12:22:22;22.60;62.70
38684;DHT22;24910;53.248;-6.134;2023-06-26T12:24:51;22.70;62.40
38684;DHT22;24910;53.248;-6.134;2023-06-26T12:27:20;22.80;62.30
38684;DHT22;24910;53.248;-6.134;2023-06-26T12:29:52;22.80;62.20
38684;DHT22;24910;53.248;-6.134;2023-06-26T12:32:23;22.90;62.20
38684;DHT22;24910;53.248;-6.134;2023-06-26T12:34:52;23.10;61.70
38684;DHT22;24910;53.248;-6.134;2023-06-26T12:37:21;23.20;61.00
38684;DHT22;24910;53.248;-6.134;2023-06-26T12:39:52;23.20;60.10
38684;DHT22;24910;53.248;-6.134;2023-06-26T12:42:23;23.30;59.80
38684;DHT22;24910;53.248;-6.134;2023-06-26T12:44:54;23.40;59.10
38684;DHT22;24910;53.248;-6.134;2023-06-26T12:47:25;23.50;58.60
38684;DHT22;24910;53.248;-6.134;2023-06-26T12:49:55;23.50;58.00
38684;DHT22;24910;53.248;-6.134;2023-06-26T12:52:25;23.60;58.00
38684;DHT22;24910;53.248;-6.134;2023-06-26T12:54:55;23.60;58.00
38684;DHT22;24910;53.248;-6.134;2023-06-26T12:57:25;23.60;57.80
38684;DHT22;24910;53.248;-6.134;2023-06-26T12:59:56;23.70;57.60
38684;DHT22;24910;53.248;-6.134;2023-06-26T13:02:25;23.80;57.30
38684;DHT22;24910;53.248;-6.134;2023-06-26T13:04:56;23.90;57.20
38684;DHT22;24910;53.248;-6.134;2023-06-26T13:07:26;23.90;57.10
38684;DHT22;24910;53.248;-6.134;2023-06-26T13:09:55;24.00;57.30
38684;DHT22;24910;53.248;-6.134;2023-06-26T13:12:24;24.10;57.10
38684;DHT22;24910;53.248;-6.134;2023-06-26T13:14:55;24.20;56.90
38684;DHT22;24910;53.248;-6.134;2023-06-26T13:17:24;24.20;56.90
38684;DHT22;24910;53.248;-6.134;2023-06-26T13:19:53;24.20;57.10
38684;DHT22;24910;53.248;-6.134;2023-06-26T13:22:22;24.20;56.90
38684;DHT22;24910;53.248;-6.134;2023-06-26T13:24:51;24.30;57.00
38684;DHT22;24910;53.248;-6.134;2023-06-26T13:27:20;24.30;56.90
38684;DHT22;24910;53.248;-6.134;2023-06-26T13:29:49;24.20;57.00
38684;DHT22;24910;53.248;-6.134;2023-06-26T13:32:20;24.20;57.10
38684;DHT22;24910;53.248;-6.134;2023-06-26T13:34:50;24.10;57.20
38684;DHT22;24910;53.248;-6.134;2023-06-26T13:37:19;24.10;57.70
38684;DHT22;24910;53.248;-6.134;2023-06-26T13:39:49;24.00;57.60
38684;DHT22;24910;53.248;-6.134;2023-06-26T13:42:19;23.90;57.60
38684;DHT22;24910;53.248;-6.134;2023-06-26T13:44:48;23.90;57.60
38684;DHT22;24910;53.248;-6.134;2023-06-26T13:47:31;23.80;57.70
38684;DHT22;24910;53.248;-6.134;2023-06-26T13:50:02;23.70;57.70
38684;DHT22;24910;53.248;-6.134;2023-06-26T13:52:31;23.60;57.80
38684;DHT22;24910;53.248;-6.134;2023-06-26T13:55:00;23.50;58.10
38684;DHT22;24910;53.248;-6.134;2023-06-26T13:57:32;23.50;58.40
38684;DHT22;24910;53.248;-6.134;2023-06-26T14:00:01;23.50;58.50
38684;DHT22;24910;53.248;-6.134;2023-06-26T14:02:40;23.50;58.80
38684;DHT22;24910;53.248;-6.134;2023-06-26T14:05:09;23.50;58.70
38684;DHT22;24910;53.248;-6.134;2023-06-26T14:07:38;23.50;58.50
38684;DHT22;24910;53.248;-6.134;2023-06-26T14:10:08;23.50;58.40
38684;DHT22;24910;53.248;-6.134;2023-06-26T14:12:40;23.50;58.50
38684;DHT22;24910;53.248;-6.134;2023-06-26T14:15:10;23.60;58.70
38684;DHT22;24910;53.248;-6.134;2023-06-26T14:17:41;23.70;58.60
38684;DHT22;24910;53.248;-6.134;2023-06-26T14:20:11;23.80;58.30
38684;DHT22;24910;53.248;-6.134;2023-06-26T14:22:40;23.90;58.10
38684;DHT22;24910;53.248;-6.134;2023-06-26T14:25:10;23.90;57.80
38684;DHT22;24910;53.248;-6.134;2023-06-26T14:27:40;23.90;57.70
38684;DHT22;24910;53.248;-6.134;2023-06-26T14:30:10;23.90;57.80
38684;DHT22;24910;53.248;-6.134;2023-06-26T14:32:40;23.90;57.80
38684;DHT22;24910;53.248;-6.134;2023-06-26T14:35:10;23.80;57.80
38684;DHT22;24910;53.248;-6.134;2023-06-26T14:37:39;23.80;57.50
38684;DHT22;24910;53.248;-6.134;2023-06-26T14:40:09;23.70;57.20
38684;DHT22;24910;53.248;-6.134;2023-06-26T14:42:39;23.60;57.10
38684;DHT22;24910;53.248;-6.134;2023-06-26T14:45:10;23.50;57.20
38684;DHT22;24910;53.248;-6.134;2023-06-26T14:47:41;23.50;57.00
38684;DHT22;24910;53.248;-6.134;2023-06-26T14:50:10;23.50;56.90
38684;DHT22;24910;53.248;-6.134;2023-06-26T14:52:39;23.50;57.00
38684;DHT22;24910;53.248;-6.134;2023-06-26T14:55:08;23.60;57.10
38684;DHT22;24910;53.248;-6.134;2023-06-26T14:57:38;23.60;57.00
38684;DHT22;24910;53.248;-6.134;2023-06-26T15:00:08;23.50;57.10
38684;DHT22;24910;53.248;-6.134;2023-06-26T15:02:37;23.60;57.30
38684;DHT22;24910;53.248;-6.134;2023-06-26T15:05:08;23.60;57.50
38684;DHT22;24910;53.248;-6.134;2023-06-26T15:07:37;23.60;57.60
38684;DHT22;24910;53.248;-6.134;2023-06-26T15:10:07;23.70;57.50
38684;DHT22;24910;53.248;-6.134;2023-06-26T15:12:37;23.60;57.20
38684;DHT22;24910;53.248;-6.134;2023-06-26T15:15:07;23.60;57.10
38684;DHT22;24910;53.248;-6.134;2023-06-26T15:17:37;23.60;57.10
38684;DHT22;24910;53.248;-6.134;2023-06-26T15:20:08;23.60;57.10
38684;DHT22;24910;53.248;-6.134;2023-06-26T15:22:37;23.60;56.90
38684;DHT22;24910;53.248;-6.134;2023-06-26T15:25:07;23.70;57.40
38684;DHT22;24910;53.248;-6.134;2023-06-26T15:27:36;23.70;57.00
38684;DHT22;24910;53.248;-6.134;2023-06-26T15:30:06;23.70;56.70
38684;DHT22;24910;53.248;-6.134;2023-06-26T15:32:36;23.60;56.70
38684;DHT22;24910;53.248;-6.134;2023-06-26T15:35:08;23.60;56.80
38684;DHT22;24910;53.248;-6.134;2023-06-26T15:37:37;23.50;57.00